Time;durP1;ratioP1;P1;durP2;ratioP2;P2;SDS_P1;SDS_P2;PMS_P1;PMS_P2;Temp;Humidity;BMP_temperature;BMP_pressure;BME280_temperature;BME280_humidity;BME280_pressure;Samples;Min_cycle;Max_cycle;Signal;HPM_P1;HPM_P2
2023/01/22 00:00:35;;;;;;;13.25;6.00;;;;;;;;;;6251683;23;20034;-96
2023/01/22 00:03:11;;;;;;;31.80;7.57;;;;;;;;;;6227829;22;20020;-95
2023/01/22 00:05:37;;;;;;;24.55;7.28;;;;;;;;;;6229014;23;20070;-95
2023/01/22 00:08:05;;;;;;;14.95;6.88;;;;;;;;;;6226714;23;20526;-96
2023/01/22 00:10:31;;;;;;;16.02;6.32;;;;;;;;;;6227847;23;20008;-95
2023/01/22 00:12:58;;;;;;;17.98;7.40;;;;;;;;;;6253767;23;20000;-95
2023/01/22 00:15:27;;;;;;;21.48;8.60;;;;;;;;;;6251736;23;20015;-95
2023/01/22 00:17:55;;;;;;;23.95;7.70;;;;;;;;;;6225905;23;20011;-95
2023/01/22 00:20:25;;;;;;;25.75;9.95;;;;;;;;;;6228356;23;20016;-95
2023/01/22 00:22:54;;;;;;;32.25;7.70;;;;;;;;;;6230762;23;20012;-95
2023/01/22 00:25:20;;;;;;;21.02;8.45;;;;;;;;;;6228094;23;20008;-96
2023/01/22 00:27:46;;;;;;;22.48;6.75;;;;;;;;;;6253104;23;20000;-96
2023/01/22 00:30:12;;;;;;;26.33;8.02;;;;;;;;;;6251605;23;20000;-95
2023/01/22 00:32:41;;;;;;;20.73;8.25;;;;;;;;;;6252460;23;20028;-96
2023/01/22 00:35:07;;;;;;;18.92;8.15;;;;;;;;;;6227401;23;20107;-96
2023/01/22 00:37:33;;;;;;;23.02;8.98;;;;;;;;;;6225788;23;20392;-95
2023/01/22 00:40:00;;;;;;;25.17;8.70;;;;;;;;;;6225614;23;20012;-95
2023/01/22 00:42:29;;;;;;;24.20;9.07;;;;;;;;;;6226872;23;20100;-95
2023/01/22 00:44:55;;;;;;;17.50;8.38;;;;;;;;;;6226261;23;20008;-95
2023/01/22 00:47:21;;;;;;;23.25;9.07;;;;;;;;;;6225883;23;20456;-95
2023/01/22 00:49:53;;;;;;;24.10;9.02;;;;;;;;;;6225037;23;20543;-95
2023/01/22 00:52:19;;;;;;;21.30;9.38;;;;;;;;;;6226309;23;20012;-95
2023/01/22 00:54:51;;;;;;;31.15;10.63;;;;;;;;;;6251239;23;20429;-95
2023/01/22 00:57:20;;;;;;;26.08;9.68;;;;;;;;;;6249899;23;20011;-94
2023/01/22 00:59:51;;;;;;;26.20;9.45;;;;;;;;;;6249718;23;20065;-95
2023/01/22 01:02:17;;;;;;;24.80;9.35;;;;;;;;;;6250196;23;20458;-95
2023/01/22 01:04:43;;;;;;;25.42;9.90;;;;;;;;;;6251059;22;20027;-95
2023/01/22 01:07:09;;;;;;;26.90;9.82;;;;;;;;;;6250995;23;20000;-95
2023/01/22 01:09:35;;;;;;;29.10;9.98;;;;;;;;;;6251713;23;20000;-96
2023/01/22 01:12:02;;;;;;;37.60;12.07;;;;;;;;;;6224551;23;20008;-95
2023/01/22 01:14:28;;;;;;;30.70;10.68;;;;;;;;;;6224329;23;20027;-95
2023/01/22 01:16:56;;;;;;;30.73;10.98;;;;;;;;;;6225052;23;20015;-95
2023/01/22 01:19:22;;;;;;;34.35;12.00;;;;;;;;;;6226319;23;20008;-95
2023/01/22 01:21:48;;;;;;;27.60;10.93;;;;;;;;;;6250425;23;20065;-95
2023/01/22 01:24:17;;;;;;;26.70;9.52;;;;;;;;;;6251154;23;20371;-96
2023/01/22 01:26:52;;;;;;;28.08;10.18;;;;;;;;;;6251452;23;20313;-96
2023/01/22 01:29:18;;;;;;;31.83;10.40;;;;;;;;;;6224624;23;20067;-94
2023/01/22 01:31:51;;;;;;;23.38;9.23;;;;;;;;;;6250503;23;20313;-95
2023/01/22 01:40:23;;;;;;;36.33;10.63;;;;;;;;;;6259593;22;19988;-95
2023/01/22 01:43:41;;;;;;;25.75;10.02;;;;;;;;;;6253579;23;20000;-96
2023/01/22 01:46:44;;;;;;;23.20;9.80;;;;;;;;;;6252602;22;20031;-96
2023/01/22 01:53:05;;;;;;;23.58;8.60;;;;;;;;;;6158465;23;20524;-96
2023/01/22 02:06:15;;;;;;;29.77;9.52;;;;;;;;;;6127250;23;20231;-96
2023/01/22 02:09:09;;;;;;;24.85;10.30;;;;;;;;;;6108118;23;20010;-96
2023/01/22 02:12:11;;;;;;;23.92;9.07;;;;;;;;;;6210123;22;20027;-96
2023/01/22 02:20:58;;;;;;;25.92;9.23;;;;;;;;;;6161103;23;20004;-95
2023/01/22 02:23:41;;;;;;;26.52;9.48;;;;;;;;;;6160865;23;20085;-95
2023/01/22 02:26:07;;;;;;;28.42;9.23;;;;;;;;;;6161085;23;20006;-95
2023/01/22 02:28:39;;;;;;;19.30;8.77;;;;;;;;;;6160814;23;20012;-96
2023/01/22 02:31:11;;;;;;;24.73;8.82;;;;;;;;;;6137240;23;20005;-96
2023/01/22 02:33:46;;;;;;;28.95;9.55;;;;;;;;;;6136992;23;20048;-96
2023/01/22 02:36:15;;;;;;;31.67;8.52;;;;;;;;;;6161361;23;20029;-96
2023/01/22 02:38:41;;;;;;;17.33;8.02;;;;;;;;;;6138560;23;20323;-96
2023/01/22 02:41:20;;;;;;;27.55;7.15;;;;;;;;;;6196909;22;20007;-96
2023/01/22 02:43:49;;;;;;;20.13;8.07;;;;;;;;;;6283994;22;20007;-96
2023/01/22 02:46:16;;;;;;;16.10;6.63;;;;;;;;;;6234119;22;20015;-96
2023/01/22 02:48:50;;;;;;;21.50;7.35;;;;;;;;;;6284986;22;20003;-96
2023/01/22 02:51:22;;;;;;;20.77;7.25;;;;;;;;;;6233986;22;20008;-96
2023/01/22 02:53:48;;;;;;;14.13;6.20;;;;;;;;;;6286889;22;19999;-96
2023/01/22 02:56:25;;;;;;;15.50;5.70;;;;;;;;;;6284324;22;20366;-96
2023/01/22 02:58:52;;;;;;;12.30;5.43;;;;;;;;;;6235369;22;20008;-96
2023/01/22 03:01:20;;;;;;;12.98;4.82;;;;;;;;;;6234707;22;20339;-96
2023/01/22 03:03:47;;;;;;;12.25;4.68;;;;;;;;;;6285834;22;20376;-96
2023/01/22 03:06:14;;;;;;;10.25;5.13;;;;;;;;;;6286948;22;20437;-96
2023/01/22 03:08:43;;;;;;;14.40;4.70;;;;;;;;;;6235268;22;20008;-95
2023/01/22 03:11:12;;;;;;;9.13;4.25;;;;;;;;;;6233668;22;20003;-96
2023/01/22 03:22:22;;;;;;;9.85;4.20;;;;;;;;;;6286489;22;20019;-95
2023/01/22 03:25:05;;;;;;;6.82;3.90;;;;;;;;;;6228932;22;20009;-95
2023/01/22 03:27:33;;;;;;;12.75;4.35;;;;;;;;;;6285133;22;20000;-95
2023/01/22 03:30:00;;;;;;;17.08;4.47;;;;;;;;;;6285505;22;20424;-95
2023/01/22 03:32:26;;;;;;;10.68;4.97;;;;;;;;;;6234797;22;20008;-95
2023/01/22 03:34:55;;;;;;;11.65;5.00;;;;;;;;;;6233779;22;20046;-95
2023/01/22 03:37:27;;;;;;;10.43;4.85;;;;;;;;;;6233755;22;20019;-95
2023/01/22 03:39:53;;;;;;;8.80;5.03;;;;;;;;;;6284700;22;20083;-96
2023/01/22 03:42:19;;;;;;;9.88;4.90;;;;;;;;;;6284341;22;20004;-95
2023/01/22 03:44:59;;;;;;;16.27;4.55;;;;;;;;;;6284666;22;20003;-95
2023/01/22 03:47:26;;;;;;;9.82;4.18;;;;;;;;;;6284879;22;20061;-95
2023/01/22 03:49:56;;;;;;;9.93;4.45;;;;;;;;;;6285575;22;19996;-95
2023/01/22 03:52:28;;;;;;;12.63;4.35;;;;;;;;;;6284382;22;20000;-96
2023/01/22 03:54:59;;;;;;;9.23;3.78;;;;;;;;;;6235709;22;20011;-95
2023/01/22 03:57:33;;;;;;;10.30;3.55;;;;;;;;;;6236139;22;20035;-96
2023/01/22 04:00:05;;;;;;;12.20;3.72;;;;;;;;;;6284991;22;20007;-95
2023/01/22 04:02:33;;;;;;;10.85;3.03;;;;;;;;;;6234424;22;20405;-96
2023/01/22 04:05:07;;;;;;;15.65;3.88;;;;;;;;;;6230839;22;20091;-96
2023/01/22 04:08:03;;;;;;;7.85;3.63;;;;;;;;;;6232049;23;20004;-96
2023/01/22 04:10:32;;;;;;;8.60;3.85;;;;;;;;;;6256265;23;20057;-96
2023/01/22 04:13:03;;;;;;;15.82;4.13;;;;;;;;;;6230895;23;20007;-96
2023/01/22 04:18:59;;;;;;;10.32;3.75;;;;;;;;;;6255102;23;20008;-96
2023/01/22 04:21:31;;;;;;;5.88;3.28;;;;;;;;;;6253207;23;20027;-96
2023/01/22 04:23:57;;;;;;;10.18;4.60;;;;;;;;;;6251813;23;20008;-96
2023/01/22 04:26:23;;;;;;;7.25;3.45;;;;;;;;;;6228885;23;20110;-96
2023/01/22 04:28:50;;;;;;;9.52;3.40;;;;;;;;;;6254686;23;20329;-95
2023/01/22 04:31:24;;;;;;;8.13;3.22;;;;;;;;;;6230351;23;20004;-96
2023/01/22 04:33:51;;;;;;;7.40;3.63;;;;;;;;;;6232164;23;20081;-96
2023/01/22 04:36:20;;;;;;;9.75;3.95;;;;;;;;;;6256174;23;20080;-96
2023/01/22 04:38:46;;;;;;;13.02;3.70;;;;;;;;;;6228764;23;20069;-95
2023/01/22 04:41:12;;;;;;;7.32;3.95;;;;;;;;;;6253668;23;20008;-95
2023/01/22 04:43:47;;;;;;;12.18;4.30;;;;;;;;;;6254209;23;20010;-95
2023/01/22 04:46:19;;;;;;;9.57;4.40;;;;;;;;;;6252740;23;20027;-95
2023/01/22 04:48:48;;;;;;;7.55;3.83;;;;;;;;;;6253505;23;20012;-95
2023/01/22 04:51:19;;;;;;;10.52;4.28;;;;;;;;;;6227943;23;20026;-96
2023/01/22 04:53:54;;;;;;;9.52;4.10;;;;;;;;;;6252817;23;20164;-95
2023/01/22 04:56:23;;;;;;;7.90;3.85;;;;;;;;;;6253006;23;20011;-95
2023/01/22 04:58:54;;;;;;;10.15;3.85;;;;;;;;;;6228758;23;20009;-95
2023/01/22 05:01:23;;;;;;;12.13;4.07;;;;;;;;;;6229144;23;20008;-95
2023/01/22 05:03:52;;;;;;;8.43;3.40;;;;;;;;;;6231048;22;20091;-95
2023/01/22 05:06:18;;;;;;;9.70;3.58;;;;;;;;;;6283826;22;20506;-96
2023/01/22 05:08:49;;;;;;;10.65;4.32;;;;;;;;;;6285857;22;20003;-95
2023/01/22 05:11:24;;;;;;;9.05;3.95;;;;;;;;;;6235211;22;20003;-95
2023/01/22 05:13:54;;;;;;;7.40;3.55;;;;;;;;;;6284222;22;20004;-94
2023/01/22 05:16:20;;;;;;;8.93;3.85;;;;;;;;;;6234101;22;20054;-95
2023/01/22 05:18:50;;;;;;;6.18;2.97;;;;;;;;;;6234370;22;20019;-95
2023/01/22 05:21:19;;;;;;;8.77;3.75;;;;;;;;;;6284839;22;20061;-95
2023/01/22 05:23:50;;;;;;;6.22;3.78;;;;;;;;;;6234575;22;20011;-95
2023/01/22 05:26:16;;;;;;;8.25;4.00;;;;;;;;;;6235286;22;20015;-94
2023/01/22 05:28:42;;;;;;;9.63;4.13;;;;;;;;;;6284383;22;19984;-95
2023/01/22 05:31:09;;;;;;;13.25;4.15;;;;;;;;;;6234406;22;20004;-96
2023/01/22 05:33:43;;;;;;;8.13;3.95;;;;;;;;;;6232616;22;20386;-96
2023/01/22 05:36:11;;;;;;;11.63;3.55;;;;;;;;;;6232859;22;20313;-96
2023/01/22 05:38:38;;;;;;;10.45;3.30;;;;;;;;;;6282913;22;20004;-95
2023/01/22 05:41:06;;;;;;;10.88;4.20;;;;;;;;;;6284176;22;20011;-95
2023/01/22 05:44:02;;;;;;;10.27;4.00;;;;;;;;;;6284988;22;20008;-95
2023/01/22 05:46:28;;;;;;;8.30;3.90;;;;;;;;;;6234865;22;20008;-95
2023/01/22 05:48:55;;;;;;;8.40;4.07;;;;;;;;;;6233332;22;19992;-95
2023/01/22 05:51:21;;;;;;;8.07;3.67;;;;;;;;;;6284236;22;20004;-94
2023/01/22 05:53:48;;;;;;;10.40;3.28;;;;;;;;;;6256879;22;20008;-95
2023/01/22 05:56:19;;;;;;;9.18;4.13;;;;;;;;;;6234365;22;20012;-95
2023/01/22 05:58:51;;;;;;;7.78;3.53;;;;;;;;;;6285803;22;20019;-95
2023/01/22 06:01:17;;;;;;;10.13;3.92;;;;;;;;;;6284985;22;19999;-95
2023/01/22 06:03:48;;;;;;;7.82;4.03;;;;;;;;;;6232677;22;20493;-95
2023/01/22 06:06:40;;;;;;;7.63;3.92;;;;;;;;;;6253026;22;20020;-96
2023/01/22 06:09:07;;;;;;;14.90;4.70;;;;;;;;;;6253133;23;20001;-95
2023/01/22 06:11:46;;;;;;;8.13;3.58;;;;;;;;;;6252132;23;20004;-96
2023/01/22 06:14:22;;;;;;;6.60;3.08;;;;;;;;;;6229807;23;20009;-94
2023/01/22 06:16:53;;;;;;;10.77;4.25;;;;;;;;;;6230142;23;20012;-94
2023/01/22 06:19:25;;;;;;;9.77;3.80;;;;;;;;;;6231001;23;20058;-96
2023/01/22 06:22:12;;;;;;;10.07;4.07;;;;;;;;;;6230673;23;20008;-95
2023/01/22 06:25:09;;;;;;;;;;;;;;;;;;;;;
2023/01/22 06:27:54;;;;;;;6.93;3.53;;;;;;;;;;6258362;22;20028;-95
2023/01/22 06:30:47;;;;;;;7.72;3.67;;;;;;;;;;6225172;23;20105;-95
2023/01/22 06:33:38;;;;;;;9.27;4.28;;;;;;;;;;6253172;23;20005;-95
2023/01/22 06:36:05;;;;;;;8.82;3.72;;;;;;;;;;6243212;23;20091;-94
2023/01/22 06:38:34;;;;;;;13.35;3.60;;;;;;;;;;6231344;23;20463;-95
2023/01/22 06:41:03;;;;;;;14.18;5.15;;;;;;;;;;6255997;23;20016;-95
2023/01/22 06:50:13;;;;;;;11.95;4.30;;;;;;;;;;6194886;23;20004;-95
2023/01/22 06:52:41;;;;;;;10.55;4.95;;;;;;;;;;6248965;22;20004;-95
2023/01/22 06:55:24;;;;;;;10.13;4.82;;;;;;;;;;6231368;23;20072;-95
2023/01/22 06:58:16;;;;;;;13.15;5.10;;;;;;;;;;6257690;23;20012;-96
2023/01/22 07:01:04;;;;;;;10.13;4.80;;;;;;;;;;6252305;23;20008;-96
2023/01/22 07:03:33;;;;;;;14.50;4.82;;;;;;;;;;6258225;22;20014;-96
2023/01/22 07:06:01;;;;;;;10.60;4.82;;;;;;;;;;6258143;22;20047;-96
2023/01/22 07:08:28;;;;;;;13.68;5.63;;;;;;;;;;6257205;23;20008;-96
2023/01/22 07:11:07;;;;;;;15.88;5.28;;;;;;;;;;6256094;23;20008;-96
2023/01/22 07:19:29;;;;;;;13.23;5.88;;;;;;;;;;6256326;23;20034;-96
2023/01/22 07:21:56;;;;;;;9.20;5.32;;;;;;;;;;6255179;23;20451;-96
2023/01/22 07:24:22;;;;;;;9.77;5.25;;;;;;;;;;6256802;23;20000;-96
2023/01/22 07:26:59;;;;;;;12.85;5.85;;;;;;;;;;6255304;23;20060;-96
2023/01/22 07:29:26;;;;;;;13.00;5.70;;;;;;;;;;6250248;23;20008;-96
2023/01/22 07:32:00;;;;;;;8.65;5.13;;;;;;;;;;6229876;23;20004;-95
2023/01/22 07:34:29;;;;;;;9.60;5.32;;;;;;;;;;6256062;23;20000;-96
2023/01/22 07:37:00;;;;;;;9.82;5.35;;;;;;;;;;6230174;23;20008;-96
2023/01/22 07:39:43;;;;;;;10.45;5.40;;;;;;;;;;6232222;23;20065;-95
2023/01/22 07:42:15;;;;;;;11.20;5.70;;;;;;;;;;6232242;23;20026;-95
2023/01/22 07:44:44;;;;;;;10.20;5.53;;;;;;;;;;6256716;23;20061;-96
2023/01/22 07:47:31;;;;;;;12.90;5.75;;;;;;;;;;6254253;23;20006;-96
2023/01/22 07:50:00;;;;;;;13.95;5.82;;;;;;;;;;6229584;23;20034;-95
2023/01/22 07:52:42;;;;;;;9.38;5.00;;;;;;;;;;6229332;23;20007;-95
2023/01/22 07:55:21;;;;;;;9.50;4.93;;;;;;;;;;6255376;23;20063;-96
2023/01/22 07:58:21;;;;;;;7.07;4.90;;;;;;;;;;6256574;23;19996;-96
2023/01/22 08:01:07;;;;;;;13.13;5.60;;;;;;;;;;6239806;23;20004;-95
2023/01/22 08:03:38;;;;;;;12.48;5.65;;;;;;;;;;6254663;23;20008;-96
2023/01/22 08:06:19;;;;;;;11.75;6.20;;;;;;;;;;6256073;22;20023;-95
2023/01/22 08:08:46;;;;;;;11.10;5.18;;;;;;;;;;6254969;23;20357;-95
2023/01/22 08:11:20;;;;;;;19.00;6.18;;;;;;;;;;6255183;23;20000;-95
2023/01/22 13:46:44;;;;;;;13.35;5.65;;;;;;;;;;6252812;22;20548;-96
2023/01/22 13:49:17;;;;;;;15.18;6.55;;;;;;;;;;6224446;23;20008;-95
2023/01/22 13:51:43;;;;;;;10.40;6.15;;;;;;;;;;6248042;23;20008;-95
2023/01/22 13:54:12;;;;;;;9.85;5.80;;;;;;;;;;6223870;23;20354;-95
2023/01/22 13:56:40;;;;;;;13.27;5.80;;;;;;;;;;6248462;23;20498;-95
2023/01/22 13:59:07;;;;;;;8.32;5.00;;;;;;;;;;6248748;23;20040;-95
2023/01/22 14:01:35;;;;;;;12.10;5.20;;;;;;;;;;6248271;23;20004;-96
2023/01/22 14:04:21;;;;;;;12.43;5.88;;;;;;;;;;6248445;23;20011;-96
2023/01/22 14:06:48;;;;;;;;;;;;;;;;;;6233545;22;20012;-95
2023/01/22 14:09:24;;;;;;;11.07;4.60;;;;;;;;;;6248014;23;19926;-95
2023/01/22 14:11:50;;;;;;;8.88;4.40;;;;;;;;;;6248271;23;20008;-96
2023/01/22 14:14:18;;;;;;;10.23;4.45;;;;;;;;;;6224876;23;20012;-96
2023/01/22 14:16:44;;;;;;;18.55;5.13;;;;;;;;;;6251123;23;20439;-96
2023/01/22 14:19:10;;;;;;;15.73;5.82;;;;;;;;;;6225829;23;20008;-95
2023/01/22 14:21:36;;;;;;;14.55;5.38;;;;;;;;;;6225518;23;20008;-95
2023/01/22 14:24:03;;;;;;;7.20;4.43;;;;;;;;;;6225938;23;20344;-95
2023/01/22 14:26:29;;;;;;;12.05;4.80;;;;;;;;;;6226448;23;20408;-96
2023/01/22 14:28:55;;;;;;;18.88;5.22;;;;;;;;;;6226395;23;20004;-95
2023/01/22 14:31:22;;;;;;;12.00;6.20;;;;;;;;;;6250854;23;20340;-95
2023/01/22 14:33:48;;;;;;;11.30;5.03;;;;;;;;;;6225726;23;20062;-95
2023/01/22 14:36:14;;;;;;;9.25;5.22;;;;;;;;;;6226068;23;20013;-95
2023/01/22 14:38:40;;;;;;;14.52;5.45;;;;;;;;;;6227354;23;20004;-96
2023/01/22 14:41:06;;;;;;;12.02;4.75;;;;;;;;;;6228101;23;20057;-95
2023/01/22 14:43:33;;;;;;;18.38;5.90;;;;;;;;;;6253542;23;20428;-95
2023/01/22 14:45:59;;;;;;;17.13;5.25;;;;;;;;;;6252858;22;20009;-96
2023/01/22 14:48:25;;;;;;;15.95;5.07;;;;;;;;;;6254216;22;20016;-95
2023/01/22 14:50:51;;;;;;;13.65;5.35;;;;;;;;;;6227947;23;20096;-96
2023/01/22 14:53:18;;;;;;;15.73;6.50;;;;;;;;;;6227580;23;20024;-96
2023/01/22 14:55:44;;;;;;;12.15;5.80;;;;;;;;;;6253788;23;20008;-95
2023/01/22 14:58:11;;;;;;;19.50;6.63;;;;;;;;;;6228166;23;20072;-95
2023/01/22 15:00:38;;;;;;;11.80;6.03;;;;;;;;;;6228334;23;20012;-95
2023/01/22 15:03:04;;;;;;;12.50;5.88;;;;;;;;;;6228694;23;20301;-95
2023/01/22 15:05:30;;;;;;;10.57;5.38;;;;;;;;;;6229223;23;20012;-95
2023/01/22 15:07:57;;;;;;;12.45;5.18;;;;;;;;;;6228807;23;20008;-95
2023/01/22 15:10:23;;;;;;;18.45;7.07;;;;;;;;;;6228913;23;20004;-96
2023/01/22 15:12:51;;;;;;;11.18;5.95;;;;;;;;;;6253979;23;20408;-96
2023/01/22 15:15:27;;;;;;;13.85;6.38;;;;;;;;;;6253163;23;20015;-95
2023/01/22 15:17:54;;;;;;;16.50;6.03;;;;;;;;;;6254713;23;20439;-96
2023/01/22 15:20:20;;;;;;;18.05;5.97;;;;;;;;;;6229733;23;20523;-96
2023/01/22 15:22:48;;;;;;;18.02;6.05;;;;;;;;;;6229559;23;20043;-96
2023/01/22 15:25:14;;;;;;;19.70;7.63;;;;;;;;;;6231656;23;20451;-95
2023/01/22 15:27:40;;;;;;;17.52;5.93;;;;;;;;;;6239035;23;20011;-94
2023/01/22 15:30:07;;;;;;;18.23;6.63;;;;;;;;;;6239513;23;19992;-96
2023/01/22 15:32:33;;;;;;;12.43;5.63;;;;;;;;;;6249192;23;20012;-96
2023/01/22 15:34:59;;;;;;;15.02;6.25;;;;;;;;;;6249712;23;20015;-96
2023/01/22 15:37:25;;;;;;;12.77;5.20;;;;;;;;;;6249693;22;19988;-96
2023/01/22 15:39:51;;;;;;;16.08;5.97;;;;;;;;;;6265141;22;20066;-96
2023/01/22 15:42:17;;;;;;;15.77;6.70;;;;;;;;;;6231828;23;20008;-96
2023/01/22 15:44:44;;;;;;;23.58;7.40;;;;;;;;;;6228720;22;20325;-96
2023/01/22 15:47:10;;;;;;;15.05;6.10;;;;;;;;;;6253956;22;20016;-96
2023/01/22 15:49:36;;;;;;;14.57;6.05;;;;;;;;;;6250803;23;20011;-96
2023/01/22 15:52:04;;;;;;;14.82;6.15;;;;;;;;;;6225817;23;20009;-96
2023/01/22 15:54:30;;;;;;;13.80;6.05;;;;;;;;;;6230357;23;20055;-96
2023/01/22 15:56:56;;;;;;;12.65;5.47;;;;;;;;;;6251085;23;20004;-96
2023/01/22 15:59:22;;;;;;;12.27;5.10;;;;;;;;;;6249674;23;20008;-96
2023/01/22 16:01:48;;;;;;;11.27;5.00;;;;;;;;;;6224485;23;20400;-96
2023/01/22 16:04:15;;;;;;;16.13;5.18;;;;;;;;;;6249579;23;20058;-96
2023/01/22 16:06:41;;;;;;;15.13;4.70;;;;;;;;;;6249482;23;20008;-96
2023/01/22 16:09:07;;;;;;;13.30;5.72;;;;;;;;;;6224643;23;20015;-96
2023/01/22 16:11:34;;;;;;;24.35;6.25;;;;;;;;;;6249200;23;20004;-96
2023/01/22 16:14:00;;;;;;;11.15;4.63;;;;;;;;;;6224173;23;20067;-96
2023/01/22 16:16:30;;;;;;;9.57;4.95;;;;;;;;;;6224476;23;20008;-96
2023/01/22 16:18:57;;;;;;;14.38;4.97;;;;;;;;;;6248763;23;20005;-96
2023/01/22 16:21:23;;;;;;;14.07;5.65;;;;;;;;;;6224088;23;20013;-95
2023/01/22 16:23:54;;;;;;;13.85;5.18;;;;;;;;;;6248011;23;20428;-94
2023/01/22 16:26:22;;;;;;;14.52;6.28;;;;;;;;;;6248079;23;20052;-95
2023/01/22 16:28:49;;;;;;;13.40;6.47;;;;;;;;;;6248773;23;20004;-95
2023/01/22 16:31:17;;;;;;;18.30;6.22;;;;;;;;;;6248503;23;20501;-94
2023/01/22 16:33:45;;;;;;;18.10;6.65;;;;;;;;;;6249530;23;20444;-95
2023/01/22 16:36:12;;;;;;;12.38;6.20;;;;;;;;;;6248366;23;20008;-95
2023/01/22 16:38:39;;;;;;;14.10;5.50;;;;;;;;;;6249150;23;20078;-95
2023/01/22 16:41:18;;;;;;;22.67;6.07;;;;;;;;;;6224309;23;20417;-95
2023/01/22 16:43:47;;;;;;;25.73;6.55;;;;;;;;;;6248916;23;20086;-95
2023/01/22 16:46:15;;;;;;;20.90;7.55;;;;;;;;;;6248939;22;20008;-95
2023/01/22 16:48:41;;;;;;;18.42;5.78;;;;;;;;;;6250104;22;20475;-95
2023/01/22 16:51:14;;;;;;;32.90;10.45;;;;;;;;;;6249698;23;20004;-96
2023/01/22 16:53:40;;;;;;;29.45;9.57;;;;;;;;;;6249369;23;20547;-96
2023/01/22 16:56:06;;;;;;;36.42;10.82;;;;;;;;;;6224183;23;20008;-96
2023/01/22 16:58:32;;;;;;;14.93;6.13;;;;;;;;;;6223925;23;20019;-96
2023/01/22 17:00:58;;;;;;;14.10;5.35;;;;;;;;;;6227070;23;20012;-95
2023/01/22 17:03:24;;;;;;;21.05;6.20;;;;;;;;;;6252133;23;20008;-96
2023/01/22 17:05:50;;;;;;;16.35;5.03;;;;;;;;;;6226730;23;20020;-95
2023/01/22 17:08:16;;;;;;;20.10;5.32;;;;;;;;;;6225823;23;20408;-96
2023/01/22 17:10:42;;;;;;;9.55;4.15;;;;;;;;;;6226728;23;20046;-95
2023/01/22 17:13:08;;;;;;;10.30;5.03;;;;;;;;;;6225190;23;20008;-96
2023/01/22 17:15:38;;;;;;;20.98;7.13;;;;;;;;;;6222812;23;20046;-95
2023/01/22 17:18:04;;;;;;;20.17;6.60;;;;;;;;;;6248962;23;20004;-96
2023/01/22 17:20:30;;;;;;;10.45;4.80;;;;;;;;;;6223228;23;20008;-95
2023/01/22 17:22:56;;;;;;;16.23;5.13;;;;;;;;;;6223730;23;20009;-96
2023/01/22 17:25:23;;;;;;;11.32;5.53;;;;;;;;;;6223821;23;20095;-96
2023/01/22 17:27:49;;;;;;;19.50;5.40;;;;;;;;;;6249208;23;20004;-96
2023/01/22 17:30:16;;;;;;;13.02;4.95;;;;;;;;;;6224317;23;20008;-96
2023/01/22 17:32:42;;;;;;;16.92;6.20;;;;;;;;;;6249784;23;20010;-95
2023/01/22 17:35:09;;;;;;;13.35;5.10;;;;;;;;;;6224453;23;20012;-96
2023/01/22 17:37:35;;;;;;;14.88;4.50;;;;;;;;;;6249979;23;20008;-96
2023/01/22 17:40:02;;;;;;;14.38;5.20;;;;;;;;;;6250055;23;20001;-95
2023/01/22 17:42:29;;;;;;;18.50;4.47;;;;;;;;;;6248774;23;20094;-96
2023/01/22 17:44:55;;;;;;;15.45;5.13;;;;;;;;;;6224356;23;20047;-95
2023/01/22 17:47:33;;;;;;;15.00;4.55;;;;;;;;;;6230215;22;20634;-95
2023/01/22 17:50:07;;;;;;;;;;;;;;;;;;6207766;22;20024;-96
2023/01/22 17:52:33;;;;;;;20.92;6.88;;;;;;;;;;6255757;22;19921;-96
2023/01/22 17:55:00;;;;;;;17.35;5.85;;;;;;;;;;6280304;22;19999;-95
2023/01/22 17:57:26;;;;;;;19.42;6.15;;;;;;;;;;6280729;22;20003;-95
2023/01/22 17:59:52;;;;;;;18.60;5.90;;;;;;;;;;6229504;22;20008;-96
2023/01/22 18:02:19;;;;;;;14.57;5.05;;;;;;;;;;6230677;22;20000;-96
2023/01/22 18:04:46;;;;;;;25.55;5.72;;;;;;;;;;6231306;22;20331;-95
2023/01/22 18:07:12;;;;;;;9.38;4.28;;;;;;;;;;6281847;22;20006;-95
2023/01/22 18:09:38;;;;;;;13.10;4.55;;;;;;;;;;6281525;22;20000;-96
2023/01/22 18:12:04;;;;;;;9.43;4.65;;;;;;;;;;6282611;22;20478;-95
2023/01/22 18:14:32;;;;;;;12.80;4.70;;;;;;;;;;6232772;22;20067;-95
2023/01/22 18:16:59;;;;;;;8.55;4.28;;;;;;;;;;6234552;22;20039;-95
2023/01/22 18:19:26;;;;;;;17.95;4.95;;;;;;;;;;6283021;22;20343;-95
2023/01/22 18:21:52;;;;;;;14.45;4.38;;;;;;;;;;6283249;22;20431;-96
2023/01/22 18:24:21;;;;;;;15.18;4.13;;;;;;;;;;6283821;22;20031;-96
2023/01/22 18:26:47;;;;;;;16.15;4.45;;;;;;;;;;6233208;22;20034;-96
2023/01/22 18:29:13;;;;;;;23.67;5.00;;;;;;;;;;6283638;22;20068;-96
2023/01/22 18:34:26;;;;;;;;;;;;;;;;;;6289867;22;20031;-96
2023/01/22 18:37:52;;;;;;;11.88;4.25;;;;;;;;;;6293185;22;19926;-96
2023/01/22 18:40:21;;;;;;;25.52;4.28;;;;;;;;;;6240692;22;20011;-96
2023/01/22 18:42:53;;;;;;;9.65;4.53;;;;;;;;;;6237757;22;20013;-96
2023/01/22 22:35:23;;;;;;;14.77;4.93;;;;;;;;;;6258423;22;20072;-95
2023/01/22 22:37:49;;;;;;;22.63;4.53;;;;;;;;;;6235892;22;20083;-95
2023/01/22 22:40:15;;;;;;;11.13;5.00;;;;;;;;;;6259466;22;20011;-96
2023/01/22 22:42:41;;;;;;;16.25;4.50;;;;;;;;;;6230895;22;20015;-95
2023/01/22 22:45:07;;;;;;;15.73;4.60;;;;;;;;;;6245722;23;20004;-94
2023/01/22 22:47:36;;;;;;;17.40;4.65;;;;;;;;;;6200171;23;20424;-95
2023/01/22 22:50:04;;;;;;;15.10;4.80;;;;;;;;;;6251523;23;20004;-95
2023/01/22 22:52:32;;;;;;;15.05;4.70;;;;;;;;;;6224945;23;20000;-95
2023/01/22 22:54:58;;;;;;;11.57;4.80;;;;;;;;;;6224775;23;20004;-95
2023/01/22 22:57:25;;;;;;;17.65;4.40;;;;;;;;;;6200820;23;20083;-96
2023/01/22 22:59:51;;;;;;;15.25;5.18;;;;;;;;;;6202496;23;20020;-95
2023/01/22 23:02:17;;;;;;;16.50;4.68;;;;;;;;;;6226934;23;20050;-95
2023/01/22 23:04:43;;;;;;;11.07;4.18;;;;;;;;;;6225963;23;20134;-94
2023/01/22 23:07:09;;;;;;;21.42;4.47;;;;;;;;;;6225972;23;20011;-95
2023/01/22 23:09:35;;;;;;;12.63;4.85;;;;;;;;;;6202884;23;20011;-95
2023/01/22 23:12:02;;;;;;;12.07;4.90;;;;;;;;;;6202026;23;20000;-95
2023/01/22 23:14:28;;;;;;;16.52;4.75;;;;;;;;;;6226965;23;20011;-95
2023/01/22 23:16:54;;;;;;;15.80;5.10;;;;;;;;;;6227220;23;20008;-96
2023/01/22 23:19:23;;;;;;;13.32;4.78;;;;;;;;;;6202068;23;20436;-95
2023/01/22 23:21:51;;;;;;;9.70;4.43;;;;;;;;;;6227368;23;20008;-95
2023/01/22 23:24:17;;;;;;;13.65;4.32;;;;;;;;;;6226593;23;20008;-95
2023/01/22 23:26:44;;;;;;;12.68;4.90;;;;;;;;;;6226503;23;20008;-95
2023/01/22 23:29:11;;;;;;;11.32;4.65;;;;;;;;;;6226112;23;20432;-95
2023/01/22 23:31:38;;;;;;;10.68;4.18;;;;;;;;;;6226426;23;20035;-95
2023/01/22 23:34:05;;;;;;;11.45;4.57;;;;;;;;;;6226684;23;20087;-95
2023/01/22 23:36:33;;;;;;;16.05;5.35;;;;;;;;;;6207679;22;20021;-95
2023/01/22 23:39:00;;;;;;;10.32;4.30;;;;;;;;;;6196337;23;20009;-95
2023/01/22 23:41:26;;;;;;;17.98;5.43;;;;;;;;;;6196528;23;20463;-95
2023/01/22 23:43:52;;;;;;;12.88;4.88;;;;;;;;;;6196326;23;20031;-94
2023/01/22 23:46:21;;;;;;;13.55;4.22;;;;;;;;;;6196176;23;20336;-95
2023/01/22 23:48:47;;;;;;;7.22;4.35;;;;;;;;;;6195660;23;20028;-95
2023/01/22 23:51:13;;;;;;;11.90;4.90;;;;;;;;;;6170522;23;20009;-95
2023/01/22 23:53:40;;;;;;;9.38;4.85;;;;;;;;;;6194994;23;20011;-95
2023/01/22 23:56:07;;;;;;;15.05;5.03;;;;;;;;;;6195905;23;20348;-95
2023/01/22 23:58:34;;;;;;;11.70;4.45;;;;;;;;;;6170697;23;20068;-94
